WetterOnline ( https://www.wetteronline.de )

Wetter aktuell Steinach

Aktuelles Wetter: Neuhaus (851m)

6-stündlich | Neueste Meldungen
Ortszeit Temperatur Wetter
Mo, 15.07. 20:00 23.0° C bewölkt
Mo, 15.07. 14:00 22.9° C wolkenlos
Mo, 15.07. 8:00 17.3° C fast wolkenlos
Mo, 15.07. 2:00 13.7° C wolkig
So, 14.07. 20:00 18.3° C bedeckt
So, 14.07. 14:00 18.9° C leicht bewölkt
So, 14.07. 8:00 12.6° C wolkig
So, 14.07. 2:00 11.4° C wolkenlos
Ortszeit Temperatur Wetter
Mo, 15.07. 20:00 23.0° C bewölkt
Mo, 15.07. 19:50 23.0° C bewölkt
Mo, 15.07. 19:40 23.3° C bedeckt
Mo, 15.07. 19:30 23.9° C wolkig
Mo, 15.07. 19:20 23.9° C wolkig
Mo, 15.07. 19:10 23.9° C bedeckt
Mo, 15.07. 19:00 24.2° C wolkig
Mo, 15.07. 18:30 24.2° C wolkig
Mo, 15.07. 18:00 24.1° C wolkig
Mo, 15.07. 17:30 24.1° C wolkig
Mo, 15.07. 17:00 24.3° C wolkig
Ortszeit Relative Feuchte Sichtweite
Mo, 15.07. 20:00 53% 50 km
Mo, 15.07. 14:00 41% >70 km
Mo, 15.07. 8:00 44% >70 km
Mo, 15.07. 2:00 59% 65 km
So, 14.07. 20:00 49% 55 km
So, 14.07. 14:00 50% >70 km
So, 14.07. 8:00 79% 45 km
So, 14.07. 2:00 80% >70 km
Ortszeit Relative Feuchte Sichtweite
Mo, 15.07. 20:00 53% 50 km
Mo, 15.07. 19:50 53% -
Mo, 15.07. 19:40 49% -
Mo, 15.07. 19:30 47% 50 km
Mo, 15.07. 19:20 47% -
Mo, 15.07. 19:10 46% -
Mo, 15.07. 19:00 46% 45 km
Mo, 15.07. 18:30 45% 65 km
Mo, 15.07. 18:00 46% 55 km
Mo, 15.07. 17:30 46% 55 km
Mo, 15.07. 17:00 44% >70 km
Ortszeit Niederschlagsmenge Niederschlagsart
Mo, 15.07. 20:00 0.0 l/m2 in 12 Std. -
Mo, 15.07. 14:00 0.0 l/m2 in 6 Std. -
Mo, 15.07. 8:00 0.0 l/m2 in 12 Std. -
Mo, 15.07. 2:00 0.0 l/m2 in 6 Std. -
So, 14.07. 20:00 0.0 l/m2 in 12 Std. -
So, 14.07. 14:00 0.0 l/m2 in 6 Std. -
So, 14.07. 8:00 0.1 l/m2 in 12 Std. Regen
So, 14.07. 2:00 0.0 l/m2 in 6 Std. -
Ortszeit Niederschlagsmenge Niederschlagsart
Mo, 15.07. 20:00 0.0 l/m2 in 1 Std. -
Mo, 15.07. 19:50 keine Meldung -
Mo, 15.07. 19:40 keine Meldung -
Mo, 15.07. 19:30 0.0 l/m2 in 30 Min -
Mo, 15.07. 19:20 keine Meldung -
Mo, 15.07. 19:10 keine Meldung -
Mo, 15.07. 19:00 0.0 l/m2 in 1 Std. -
Mo, 15.07. 18:30 0.0 l/m2 in 30 Min -
Mo, 15.07. 18:00 0.0 l/m2 in 1 Std. -
Mo, 15.07. 17:30 0.0 l/m2 in 30 Min -
Mo, 15.07. 17:00 0.0 l/m2 in 1 Std. -
Ortszeit Stärke Spitze Richtung
km/h Bft. km/h Grad Sektor
Mo, 15.07. 20:00 7 2 31 180° S
Mo, 15.07. 14:00 14 3 32 190° S
Mo, 15.07. 8:00 4 1 18 130° SO
Mo, 15.07. 2:00 6 1 19 210° SW
So, 14.07. 20:00 9 2 33 220° SW
So, 14.07. 14:00 20 4 39 220° SW
So, 14.07. 8:00 9 2 19 200° S
So, 14.07. 2:00 4 1 14 250° W
Ortszeit Stärke Spitze Richtung
km/h Bft. km/h Grad Sektor
Mo, 15.07. 20:00 7 2 20 180° S
Mo, 15.07. 19:50 7 2 - 180° S
Mo, 15.07. 19:40 7 2 - 160° S
Mo, 15.07. 19:30 11 2 22 160° S
Mo, 15.07. 19:20 11 2 - 160° S
Mo, 15.07. 19:10 11 2 - 170° S
Mo, 15.07. 19:00 11 2 25 170° S
Mo, 15.07. 18:30 11 2 22 170° S
Mo, 15.07. 18:00 11 2 24 180° S
Mo, 15.07. 17:30 13 3 22 180° S
Mo, 15.07. 17:00 11 2 32 210° SW
Ortszeit Untergrenze Bedeckung Gattung
total tief tief mittel hoch
Mo, 15.07. 20:00 6900 m 8/8 5/8 - - -
Mo, 15.07. 14:00 - 0/8 0/8 - - -
Mo, 15.07. 8:00 9000 m 1/8 0/8 - - -
Mo, 15.07. 2:00 3300 m 5/8 5/8 - - -
So, 14.07. 20:00 4200 m 8/8 8/8 - - -
So, 14.07. 14:00 1200 m 4/8 4/8 - - -
So, 14.07. 8:00 2400 m 7/8 4/8 - - -
So, 14.07. 2:00 - 0/8 0/8 - - -
Ortszeit Bedeckungsgrad in Achtel und Wolkenuntergrenze
Mo, 15.07. 20:00 5(6900m) 7(7800m) 8(9000m)
Mo, 15.07. 19:50 5(6900m) 7(7800m) 8(9000m)
Mo, 15.07. 19:40 8
Mo, 15.07. 19:30 5(7200m) 8(9000m) 8(9000m)
Mo, 15.07. 19:20 5(7200m) 8(9000m) 8(9000m)
Mo, 15.07. 19:10 8
Mo, 15.07. 19:00 7(7200m)
Mo, 15.07. 18:30 6(7500m) 7(8400m) 8(9000m)
Mo, 15.07. 18:00 6(7500m) 7(8400m) 7(9000m)
Mo, 15.07. 17:30 1(7500m) 4(8700m) 7(9000m)
Mo, 15.07. 17:00 6(8400m) 7(9000m) 7(9000m)
Ortszeit Stationsdruck (hPa) Tendenz (hPa in 3 Std.)
Mo, 15.07. 20:00 917 - 0,6
Mo, 15.07. 14:00 918 - 0,5
Mo, 15.07. 8:00 918 + 0,3
Mo, 15.07. 2:00 918 - 0,1
So, 14.07. 20:00 918 + 0,4
So, 14.07. 14:00 918 - 0,2
So, 14.07. 8:00 918 + 0,5
So, 14.07. 2:00 918 0,0
Ortszeit Stationsdruck (hPa) Tendenz (hPa in 3 Std.)
Mo, 15.07. 20:00 917 - 0,6
Mo, 15.07. 19:50 917 keine Meldung
Mo, 15.07. 19:40 916 keine Meldung
Mo, 15.07. 19:30 916 - 1,0
Mo, 15.07. 19:20 916 keine Meldung
Mo, 15.07. 19:10 916 keine Meldung
Mo, 15.07. 19:00 916 - 1,1
Mo, 15.07. 18:30 917 - 1,0
Mo, 15.07. 18:00 917 - 0,8
Mo, 15.07. 17:30 917 - 0,7
Mo, 15.07. 17:00 917 - 0,7
Ortszeit Schneehöhe (cm)
Mo, 15.07. 20:00 0
Mo, 15.07. 14:00 0
Mo, 15.07. 8:00 0
Mo, 15.07. 2:00 0
So, 14.07. 20:00 0
So, 14.07. 14:00 0
So, 14.07. 8:00 0
So, 14.07. 2:00 0
Ortszeit Schneehöhe (cm)
Mo, 15.07. 20:00 0
Mo, 15.07. 19:50 0
Mo, 15.07. 19:40 -
Mo, 15.07. 19:30 0
Mo, 15.07. 19:20 0
Mo, 15.07. 19:10 -
Mo, 15.07. 19:00 0
Mo, 15.07. 18:30 0
Mo, 15.07. 18:00 0
Mo, 15.07. 17:30 0
Mo, 15.07. 17:00 0
Link zu dieser Seite / Seite empfehlen

Das Wetter in ...